Time;durP1;ratioP1;P1;durP2;ratioP2;P2;SDS_P1;SDS_P2;PMS_P1;PMS_P2;Temp;Humidity;BMP_temperature;BMP_pressure;BME280_temperature;BME280_humidity;BME280_pressure;Samples;Min_cycle;Max_cycle;Signal;HPM_P1;HPM_P2
2022/03/20 00:00:33;;;;;;;10.10;4.90;;;4.50;1.00;;;;;;5037217;28;20094;-85
2022/03/20 00:03:05;;;;;;;8.15;3.88;;;4.50;1.00;;;;;;5037018;28;20022;-85
2022/03/20 00:05:31;;;;;;;5.82;4.57;;;4.50;1.00;;;;;;5037194;28;20108;-85
2022/03/20 00:07:56;;;;;;;5.32;3.67;;;4.50;1.00;;;;;;5035137;28;20103;-85
2022/03/20 00:10:22;;;;;;;6.60;3.70;;;4.40;1.00;;;;;;5035241;28;20022;-85
2022/03/20 00:12:47;;;;;;;7.90;5.05;;;4.30;1.00;;;;;;5037203;28;20031;-85
2022/03/20 00:15:13;;;;;;;10.30;4.75;;;4.50;1.00;;;;;;5037011;28;20530;-85
2022/03/20 00:17:38;;;;;;;7.35;4.63;;;4.60;1.00;;;;;;5034910;28;20050;-85
2022/03/20 00:20:05;;;;;;;5.95;3.58;;;4.40;1.00;;;;;;5035258;28;20029;-84
2022/03/20 00:22:31;;;;;;;6.47;3.97;;;4.40;1.00;;;;;;5021191;28;20193;-85
2022/03/20 00:24:58;;;;;;;7.45;4.13;;;4.30;1.00;;;;;;5035248;28;20108;-85
2022/03/20 00:27:24;;;;;;;8.77;3.83;;;4.20;1.00;;;;;;5035414;28;20793;-85
2022/03/20 00:29:50;;;;;;;8.68;4.93;;;4.20;1.00;;;;;;5042374;28;20029;-85
2022/03/20 00:32:19;;;;;;;6.55;3.85;;;4.20;1.00;;;;;;5054910;28;20021;-84
2022/03/20 00:34:45;;;;;;;7.03;4.70;;;4.20;1.00;;;;;;5056400;28;20463;-85
2022/03/20 00:37:11;;;;;;;8.48;4.38;;;4.00;1.00;;;;;;5054797;28;20031;-85
2022/03/20 00:39:36;;;;;;;10.63;4.07;;;4.00;1.00;;;;;;5048965;28;20063;-85
2022/03/20 00:42:03;;;;;;;5.22;2.97;;;4.10;1.00;;;;;;5034594;28;20078;-85
2022/03/20 00:44:28;;;;;;;6.43;4.50;;;4.10;1.00;;;;;;5034501;28;20088;-85
2022/03/20 00:46:54;;;;;;;6.53;4.55;;;4.00;1.00;;;;;;5035606;28;20033;-85
2022/03/20 00:49:20;;;;;;;7.50;3.28;;;3.90;8.30;;;;;;5034535;28;20036;-85
2022/03/20 00:51:45;;;;;;;9.57;4.32;;;3.80;7.70;;;;;;5035903;28;20053;-85
2022/03/20 00:54:11;;;;;;;9.15;4.78;;;3.70;12.40;;;;;;5052635;28;20488;-85
2022/03/20 00:56:38;;;;;;;6.40;3.83;;;3.70;19.90;;;;;;5054724;28;20051;-85
2022/03/20 00:59:04;;;;;;;9.15;4.63;;;3.70;24.50;;;;;;5054982;28;20028;-85
2022/03/20 01:01:48;;;;;;;7.13;4.68;;;3.70;26.10;;;;;;5054835;28;20025;-85
2022/03/20 01:04:13;;;;;;;7.90;4.88;;;3.50;27.40;;;;;;5054612;28;20067;-85
2022/03/20 01:06:39;;;;;;;8.50;4.38;;;3.50;37.10;;;;;;5054270;28;20017;-85
2022/03/20 01:09:05;;;;;;;8.60;4.80;;;3.40;40.00;;;;;;5053965;28;20029;-85
2022/03/20 01:11:32;;;;;;;7.55;4.45;;;3.30;47.00;;;;;;5054147;28;20028;-85
2022/03/20 01:13:58;;;;;;;9.20;5.32;;;3.40;60.00;;;;;;5054545;28;20021;-85
2022/03/20 01:16:24;;;;;;;8.70;4.93;;;3.40;60.20;;;;;;5053919;28;20056;-84
2022/03/20 01:18:50;;;;;;;12.27;5.05;;;3.30;55.20;;;;;;5053927;28;20035;-84
2022/03/20 01:21:15;;;;;;;9.02;4.65;;;3.20;70.30;;;;;;5055359;28;20043;-84
2022/03/20 01:23:41;;;;;;;10.18;5.78;;;3.10;70.70;;;;;;5053967;28;20126;-84
2022/03/20 01:26:07;;;;;;;8.50;4.43;;;3.10;86.20;;;;;;5055365;28;20036;-85
2022/03/20 01:28:32;;;;;;;11.82;5.38;;;3.10;84.70;;;;;;5054161;28;20059;-85
2022/03/20 01:30:58;;;;;;;10.02;4.65;;;3.20;85.10;;;;;;5049175;28;20028;-85
2022/03/20 01:33:23;;;;;;;7.70;3.83;;;3.20;80.00;;;;;;5034031;28;20029;-84
2022/03/20 01:35:49;;;;;;;8.30;5.30;;;3.20;80.70;;;;;;5034919;28;20497;-85
2022/03/20 01:38:40;;;;;;;9.95;5.78;;;3.30;90.90;;;;;;5050541;28;20079;-85
2022/03/20 01:41:06;;;;;;;7.43;3.97;;;3.20;90.40;;;;;;5053638;28;20662;-84
2022/03/20 01:43:52;;;;;;;10.30;4.80;;;3.10;91.00;;;;;;5034887;28;20496;-84
2022/03/20 01:46:17;;;;;;;6.65;4.07;;;3.00;95.50;;;;;;5043528;28;20098;-85
2022/03/20 01:48:43;;;;;;;11.30;5.50;;;3.00;98.00;;;;;;5054808;28;20095;-85
2022/03/20 01:51:13;;;;;;;9.98;5.32;;;2.90;99.90;;;;;;5047559;28;20029;-85
2022/03/20 01:53:39;;;;;;;11.35;4.65;;;2.80;99.90;;;;;;5035159;28;20026;-84
2022/03/20 01:56:06;;;;;;;10.40;5.22;;;2.80;99.90;;;;;;5033580;28;20029;-85
2022/03/20 01:58:32;;;;;;;10.43;5.63;;;2.80;99.90;;;;;;5035552;28;20049;-85
2022/03/20 02:00:59;;;;;;;13.85;5.40;;;2.70;99.90;;;;;;5035016;28;20022;-85
2022/03/20 02:03:24;;;;;;;8.70;5.90;;;2.80;99.90;;;;;;5033729;28;20472;-84
2022/03/20 02:05:51;;;;;;;10.88;6.05;;;2.70;99.90;;;;;;5045417;28;20047;-84
2022/03/20 02:08:24;;;;;;;6.43;3.63;;;2.70;99.90;;;;;;5053044;28;20033;-84
2022/03/20 02:10:51;;;;;;;8.13;4.25;;;2.70;99.90;;;;;;5053366;28;20086;-84
2022/03/20 02:13:23;;;;;;;9.70;4.95;;;2.80;99.90;;;;;;5066939;22;20056;-86
2022/03/20 02:15:50;;;;;;;8.13;4.68;;;2.80;99.90;;;;;;5056025;28;20550;-87
2022/03/20 02:18:15;;;;;;;15.25;5.65;;;2.80;99.90;;;;;;5055184;28;20021;-87
2022/03/20 02:21:01;;;;;;;8.98;4.80;;;2.70;99.90;;;;;;5054358;28;20075;-88
2022/03/20 02:23:26;;;;;;;9.40;4.78;;;2.70;99.90;;;;;;5055744;28;20036;-88
2022/03/20 02:25:52;;;;;;;11.63;5.45;;;2.60;99.90;;;;;;5055469;28;20035;-88
2022/03/20 02:28:18;;;;;;;12.10;4.82;;;2.70;99.90;;;;;;5055336;28;20503;-87
2022/03/20 02:30:47;;;;;;;9.60;4.88;;;2.70;99.90;;;;;;5057796;28;20025;-88
2022/03/20 02:33:13;;;;;;;12.20;4.65;;;2.60;99.90;;;;;;5056390;28;20491;-87
2022/03/20 02:35:40;;;;;;;9.90;5.10;;;2.60;99.90;;;;;;5056160;28;20024;-87
2022/03/20 02:38:10;;;;;;;9.10;5.03;;;2.70;99.90;;;;;;5055197;28;20539;-88
2022/03/20 02:40:36;;;;;;;9.85;5.80;;;2.70;99.90;;;;;;5054676;28;20032;-89
2022/03/20 02:43:05;;;;;;;7.60;4.10;;;2.50;99.90;;;;;;5055724;28;20037;-88
2022/03/20 02:45:31;;;;;;;11.43;6.82;;;2.60;99.90;;;;;;5055194;28;20484;-89
2022/03/20 02:47:59;;;;;;;11.10;5.97;;;2.60;99.90;;;;;;5060297;28;20040;-88
2022/03/20 02:50:33;;;;;;;8.85;4.95;;;2.60;99.90;;;;;;5061227;28;20032;-88
2022/03/20 02:53:02;;;;;;;7.38;4.25;;;2.60;99.90;;;;;;5060601;28;20117;-87
2022/03/20 02:55:38;;;;;;;10.48;5.25;;;2.50;99.90;;;;;;5058750;28;20721;-87
2022/03/20 02:58:14;;;;;;;8.63;4.05;;;2.50;99.90;;;;;;5060270;28;20151;-87
2022/03/20 03:00:58;;;;;;;10.55;4.78;;;2.40;99.90;;;;;;5060385;28;20036;-87
2022/03/20 03:03:32;;;;;;;11.38;6.38;;;2.40;99.90;;;;;;5060087;28;20115;-88
2022/03/20 03:05:58;;;;;;;6.50;4.22;;;2.30;99.90;;;;;;5058831;28;20025;-88
2022/03/20 03:11:08;;;;;;;9.18;5.68;;;2.20;99.90;;;;;;5046234;28;20043;-87
2022/03/20 03:13:41;;;;;;;11.02;5.88;;;2.10;99.90;;;;;;5058089;28;20045;-87
2022/03/20 03:16:40;;;;;;;7.97;4.78;;;2.10;99.90;;;;;;5055163;28;20778;-87
2022/03/20 03:19:05;;;;;;;14.18;6.72;;;2.10;99.90;;;;;;5039264;28;20076;-87
2022/03/20 03:21:31;;;;;;;11.50;6.28;;;2.10;99.90;;;;;;5038085;28;20030;-88
2022/03/20 03:23:58;;;;;;;14.18;6.70;;;2.00;99.90;;;;;;5038467;28;20025;-88
2022/03/20 03:26:23;;;;;;;12.55;5.70;;;2.10;99.90;;;;;;5043240;28;20024;-88
2022/03/20 03:28:50;;;;;;;10.60;5.57;;;2.10;99.90;;;;;;5060401;28;20028;-86
2022/03/20 03:31:17;;;;;;;11.18;5.65;;;2.10;99.90;;;;;;5062523;28;20029;-87
2022/03/20 03:36:27;;;;;;;11.75;6.93;;;2.00;99.90;;;;;;5062365;28;20518;-88
2022/03/20 03:38:52;;;;;;;13.38;7.05;;;2.00;99.90;;;;;;5060313;28;20029;-87
2022/03/20 03:41:18;;;;;;;11.77;7.05;;;2.10;99.90;;;;;;5060912;28;20029;-87
2022/03/20 03:43:44;;;;;;;15.38;6.90;;;2.00;99.90;;;;;;5061035;28;20025;-86
2022/03/20 03:46:09;;;;;;;12.13;6.80;;;1.90;99.90;;;;;;5060479;28;21931;-87
2022/03/20 03:48:35;;;;;;;10.15;6.38;;;1.90;99.90;;;;;;5059563;28;20411;-88
2022/03/20 03:51:00;;;;;;;10.70;6.53;;;1.80;99.90;;;;;;5060100;28;20069;-88
2022/03/20 03:53:26;;;;;;;9.40;5.07;;;1.80;99.90;;;;;;5060113;28;20028;-88
2022/03/20 03:55:52;;;;;;;10.38;4.80;;;1.70;99.90;;;;;;5058076;28;20025;-88
2022/03/20 03:58:17;;;;;;;14.98;6.88;;;1.70;99.90;;;;;;5057561;28;20391;-87
2022/03/20 04:00:43;;;;;;;9.20;5.93;;;1.80;99.90;;;;;;5058830;28;20056;-88
2022/03/20 04:03:09;;;;;;;13.25;6.53;;;1.80;99.90;;;;;;5059647;28;20032;-88
2022/03/20 04:05:35;;;;;;;16.98;7.65;;;1.80;99.90;;;;;;5058700;28;20025;-88
2022/03/20 04:08:01;;;;;;;15.02;7.70;;;1.80;99.90;;;;;;5057510;28;20044;-86
2022/03/20 04:10:26;;;;;;;10.40;6.63;;;1.80;99.90;;;;;;5059044;28;20021;-88
2022/03/20 04:12:52;;;;;;;16.77;7.43;;;1.70;99.90;;;;;;5058814;28;20064;-87
2022/03/20 04:15:27;;;;;;;13.38;7.38;;;1.60;99.90;;;;;;5058636;28;20488;-88
2022/03/20 04:17:53;;;;;;;15.00;7.93;;;1.90;99.90;;;;;;5058927;28;20040;-87
2022/03/20 04:20:19;;;;;;;12.73;7.10;;;1.80;99.90;;;;;;5058602;28;20025;-88
2022/03/20 04:23:42;;;;;;;16.95;7.97;;;1.80;99.90;;;;;;5057643;28;20025;-89
2022/03/20 04:25:30;;;;;;;12.73;7.35;;;1.70;99.90;;;;;;5057215;28;20423;-89
2022/03/20 04:27:57;;;;;;;16.25;8.60;;;1.70;99.90;;;;;;5056719;28;20029;-87
2022/03/20 04:30:28;;;;;;;14.32;6.55;;;1.60;99.90;;;;;;5057288;28;20041;-89
2022/03/20 04:32:54;;;;;;;17.25;9.30;;;1.70;99.90;;;;;;5057731;28;20032;-89
2022/03/20 04:35:23;;;;;;;13.50;6.80;;;1.60;99.90;;;;;;5057606;28;20044;-89
2022/03/20 04:37:50;;;;;;;16.27;8.02;;;1.60;99.90;;;;;;5057428;28;20023;-89
2022/03/20 04:40:15;;;;;;;17.38;9.02;;;1.50;99.90;;;;;;5056624;28;20461;-88
2022/03/20 04:42:41;;;;;;;13.63;7.57;;;1.50;99.90;;;;;;5056063;28;20120;-89
2022/03/20 04:45:07;;;;;;;12.43;6.50;;;1.50;99.90;;;;;;5055588;28;20480;-88
2022/03/20 04:58:31;;;;;;;16.10;7.97;;;1.60;99.90;;;;;;5038244;28;20033;-88
2022/03/20 05:00:57;;;;;;;14.73;9.43;;;1.50;99.90;;;;;;5058167;28;20013;-88
2022/03/20 05:03:24;;;;;;;17.42;9.30;;;1.40;99.90;;;;;;5054747;28;20027;-88
2022/03/20 05:05:49;;;;;;;13.48;8.40;;;1.40;99.90;;;;;;5058455;28;20086;-89
2022/03/20 05:08:15;;;;;;;16.45;9.68;;;1.40;96.50;;;;;;5057770;28;20045;-88
2022/03/20 05:13:25;;;;;;;17.52;8.80;;;1.50;85.60;;;;;;5059540;28;20454;-88
2022/03/20 05:15:55;;;;;;;16.73;9.45;;;1.50;91.10;;;;;;5058562;28;20483;-88
2022/03/20 05:18:21;;;;;;;17.50;9.45;;;1.60;82.10;;;;;;5065001;28;20116;-88
2022/03/20 05:20:47;;;;;;;8.20;5.95;;;1.60;67.40;;;;;;5070076;28;20033;-88
2022/03/20 05:23:12;;;;;;;15.77;8.25;;;1.70;53.50;;;;;;5070408;28;20097;-88
2022/03/20 05:25:38;;;;;;;19.30;10.02;;;1.70;57.10;;;;;;5058855;28;20056;-87
2022/03/20 05:28:04;;;;;;;18.67;9.32;;;1.60;57.80;;;;;;5050275;28;20026;-88
2022/03/20 05:30:36;;;;;;;20.75;9.63;;;1.50;63.20;;;;;;5050558;28;20026;-87
2022/03/20 05:33:02;;;;;;;15.68;7.63;;;1.50;54.60;;;;;;5060560;28;20054;-87
2022/03/20 05:35:29;;;;;;;17.75;7.97;;;1.50;48.60;;;;;;5059133;28;20049;-89
2022/03/20 05:37:54;;;;;;;14.60;8.57;;;1.50;45.20;;;;;;5056184;28;20029;-87
2022/03/20 05:40:20;;;;;;;14.55;8.65;;;1.70;27.50;;;;;;5039232;28;20048;-89
2022/03/20 05:42:46;;;;;;;19.02;10.13;;;1.60;28.10;;;;;;5055627;28;20025;-88
2022/03/20 05:45:12;;;;;;;18.75;9.43;;;1.50;39.80;;;;;;5056689;28;20434;-88
2022/03/20 05:47:39;;;;;;;18.42;9.63;;;1.60;23.10;;;;;;5056183;28;20025;-88
2022/03/20 05:50:06;;;;;;;15.68;9.38;;;1.70;13.90;;;;;;5052147;28;20112;-89
2022/03/20 05:52:32;;;;;;;19.67;9.68;;;1.70;18.90;;;;;;5049849;28;20055;-88
2022/03/20 05:54:59;;;;;;;13.70;7.32;;;1.70;11.60;;;;;;5054601;28;20021;-88
2022/03/20 06:00:16;;;;;;;13.52;7.95;;;1.80;1.00;;;;;;5056848;28;20032;-89
2022/03/20 06:02:45;;;;;;;24.13;12.73;;;1.80;1.00;;;;;;5046418;28;20061;-89
2022/03/20 06:05:12;;;;;;;19.63;10.88;;;2.00;1.00;;;;;;5019336;28;20481;-89
2022/03/20 06:07:46;;;;;;;15.38;8.55;;;2.00;1.00;;;;;;5035308;28;20029;-88
2022/03/20 06:10:17;;;;;;;19.98;10.85;;;2.00;1.00;;;;;;5045371;28;20025;-89
2022/03/20 06:12:43;;;;;;;20.27;11.18;;;2.00;1.00;;;;;;5055602;28;20037;-88
2022/03/20 06:15:09;;;;;;;16.88;8.55;;;2.00;1.00;;;;;;5055848;28;20477;-89
2022/03/20 06:17:46;;;;;;;19.15;11.10;;;1.90;1.00;;;;;;5055112;28;20039;-89
2022/03/20 06:20:14;;;;;;;17.27;9.20;;;2.20;1.00;;;;;;5054089;28;20021;-88
2022/03/20 06:22:56;;;;;;;18.88;10.40;;;2.30;1.00;;;;;;5054280;28;20029;-89
2022/03/20 06:25:22;;;;;;;15.82;8.65;;;2.30;1.00;;;;;;5053917;28;20025;-89
2022/03/20 06:27:56;;;;;;;15.32;8.98;;;2.40;1.00;;;;;;5057163;28;20036;-89
2022/03/20 06:30:22;;;;;;;19.25;10.15;;;2.40;1.00;;;;;;5053481;28;20135;-84
2022/03/20 06:32:48;;;;;;;20.92;11.43;;;2.40;1.00;;;;;;5053840;28;20033;-85
2022/03/20 06:35:18;;;;;;;19.58;10.20;;;2.50;1.00;;;;;;5045131;28;20075;-85
2022/03/20 06:37:46;;;;;;;19.27;9.18;;;2.50;1.00;;;;;;5052787;28;20021;-85
2022/03/20 06:40:14;;;;;;;22.92;11.50;;;2.50;1.00;;;;;;5052571;28;20064;-85
2022/03/20 06:42:42;;;;;;;19.90;11.23;;;2.60;1.00;;;;;;5052503;28;20078;-85
2022/03/20 06:45:10;;;;;;;21.17;10.75;;;2.60;1.00;;;;;;5052038;28;20074;-85
2022/03/20 06:47:36;;;;;;;18.95;10.88;;;2.70;1.00;;;;;;5045029;28;20037;-85
2022/03/20 06:50:03;;;;;;;18.40;10.48;;;2.70;1.00;;;;;;5051797;28;20017;-85
2022/03/20 06:52:29;;;;;;;18.17;9.90;;;2.80;1.00;;;;;;5051932;28;20033;-85
2022/03/20 06:54:57;;;;;;;19.73;11.10;;;2.90;1.00;;;;;;5051941;28;20036;-85
2022/03/20 06:57:23;;;;;;;19.17;10.73;;;3.00;1.00;;;;;;5051949;28;20025;-85
2022/03/20 06:59:49;;;;;;;22.88;12.02;;;3.10;1.00;;;;;;5052175;28;20025;-84
2022/03/20 07:02:18;;;;;;;19.65;8.77;;;3.20;1.00;;;;;;5052114;28;20115;-85
2022/03/20 07:04:47;;;;;;;19.77;10.38;;;3.30;1.00;;;;;;5052188;28;20484;-85
2022/03/20 07:07:14;;;;;;;22.85;13.15;;;3.30;1.00;;;;;;5052102;28;20025;-86
2022/03/20 07:09:39;;;;;;;22.33;11.43;;;3.50;1.00;;;;;;5048771;28;20033;-86
2022/03/20 07:12:05;;;;;;;23.15;11.27;;;3.50;1.00;;;;;;5051591;28;20021;-86
2022/03/20 07:14:31;;;;;;;18.13;9.90;;;3.60;1.00;;;;;;5051498;28;20068;-87
2022/03/20 07:16:56;;;;;;;21.60;11.05;;;5.20;1.00;;;;;;5053167;28;20028;-86
2022/03/20 07:19:23;;;;;;;19.70;12.32;;;6.70;99.90;;;;;;5051749;28;20039;-87
2022/03/20 07:21:49;;;;;;;14.95;8.77;;;7.40;99.90;;;;;;5052177;28;20114;-87
2022/03/20 07:24:15;;;;;;;16.23;9.30;;;7.50;99.90;;;;;;5051480;28;20128;-85
2022/03/20 07:29:31;;;;;;;17.83;10.02;;;7.90;99.90;;;;;;5053228;28;20040;-85
2022/03/20 07:32:06;;;;;;;20.98;11.45;;;8.30;99.90;;;;;;5052804;28;20070;-86
2022/03/20 07:34:36;;;;;;;22.55;11.13;;;8.80;99.90;;;;;;5057093;28;20093;-84
2022/03/20 07:37:03;;;;;;;14.35;8.82;;;9.20;99.90;;;;;;5056680;28;20439;-85
2022/03/20 07:39:30;;;;;;;20.38;10.85;;;8.40;99.90;;;;;;5061182;28;20037;-84
2022/03/20 07:41:57;;;;;;;20.85;12.70;;;8.80;99.90;;;;;;5055349;28;20665;-85
2022/03/20 07:44:23;;;;;;;20.90;12.98;;;9.90;99.90;;;;;;5056662;28;20040;-85
2022/03/20 07:46:49;;;;;;;18.90;11.60;;;9.90;99.90;;;;;;5055383;28;20025;-85
2022/03/20 07:49:15;;;;;;;15.40;8.38;;;9.40;99.90;;;;;;5049587;28;20040;-85
2022/03/20 07:51:42;;;;;;;17.75;10.80;;;8.90;99.90;;;;;;5070529;28;20032;-85
2022/03/20 07:54:07;;;;;;;23.65;12.48;;;9.50;99.90;;;;;;5054971;28;20070;-85
2022/03/20 07:56:35;;;;;;;18.48;11.75;;;9.40;99.90;;;;;;5050277;28;20025;-84
2022/03/20 07:59:05;;;;;;;14.40;8.90;;;9.90;99.90;;;;;;5056246;28;20028;-85
2022/03/20 08:01:32;;;;;;;20.73;11.27;;;10.20;99.90;;;;;;5055071;28;20435;-85
2022/03/20 08:03:58;;;;;;;13.75;9.30;;;11.20;99.90;;;;;;5055461;28;20092;-85
2022/03/20 08:06:23;;;;;;;21.85;13.13;;;10.00;99.90;;;;;;5056329;28;20021;-86
2022/03/20 08:08:49;;;;;;;17.27;10.90;;;9.90;99.90;;;;;;5054638;28;20025;-85
2022/03/20 08:11:15;;;;;;;21.75;11.77;;;10.70;99.90;;;;;;5054705;28;20476;-85
2022/03/20 08:13:43;;;;;;;17.95;10.00;;;10.50;99.90;;;;;;5055397;28;20076;-84
2022/03/20 08:16:12;;;;;;;19.17;13.55;;;11.60;99.90;;;;;;5054595;28;20552;-85
2022/03/20 08:18:38;;;;;;;20.05;12.52;;;11.00;99.90;;;;;;5055836;28;20025;-85
2022/03/20 08:21:05;;;;;;;24.23;12.38;;;11.10;99.90;;;;;;5054367;28;20029;-85
2022/03/20 08:23:31;;;;;;;19.13;11.73;;;12.10;99.90;;;;;;5070787;28;20036;-85
2022/03/20 08:25:56;;;;;;;14.93;9.48;;;11.40;99.90;;;;;;5070559;28;20033;-85
2022/03/20 08:28:22;;;;;;;21.85;12.32;;;11.30;99.90;;;;;;5051320;28;20544;-85
2022/03/20 08:30:47;;;;;;;19.88;12.95;;;11.00;99.90;;;;;;5046904;28;20025;-84
2022/03/20 08:33:15;;;;;;;18.13;11.98;;;11.20;99.90;;;;;;5037370;28;20021;-85
2022/03/20 08:35:40;;;;;;;23.67;13.35;;;11.10;99.90;;;;;;5054246;28;20029;-85
2022/03/20 08:41:17;;;;;;;20.05;11.55;;;12.90;99.90;;;;;;5047446;28;20499;-85
2022/03/20 08:43:43;;;;;;;23.15;12.98;;;12.30;99.90;;;;;;5055656;28;20021;-84
2022/03/20 08:46:09;;;;;;;22.23;14.43;;;13.10;99.90;;;;;;5055087;28;20082;-83
2022/03/20 08:48:34;;;;;;;20.25;13.65;;;13.60;99.90;;;;;;5056523;28;20097;-86
2022/03/20 08:51:00;;;;;;;20.42;11.55;;;13.50;99.90;;;;;;5055565;28;20529;-84
2022/03/20 08:53:26;;;;;;;20.58;13.13;;;13.60;99.90;;;;;;5074867;28;20017;-85
2022/03/20 08:55:51;;;;;;;24.48;14.95;;;11.60;99.90;;;;;;5058989;28;20465;-86
2022/03/20 08:58:17;;;;;;;21.48;11.32;;;11.70;99.90;;;;;;5058040;28;20025;-85
2022/03/20 09:00:44;;;;;;;21.45;13.38;;;11.70;99.90;;;;;;5058100;28;20411;-84
2022/03/20 09:03:10;;;;;;;24.52;14.38;;;11.80;99.90;;;;;;5058507;28;20392;-84
2022/03/20 09:05:40;;;;;;;22.35;15.52;;;12.00;99.90;;;;;;5062725;28;20013;-88
2022/03/20 09:08:06;;;;;;;20.40;13.65;;;12.70;99.90;;;;;;5066274;28;20033;-87
2022/03/20 09:10:33;;;;;;;20.90;13.73;;;11.80;99.90;;;;;;5071547;28;20055;-83
2022/03/20 09:13:00;;;;;;;17.08;11.23;;;12.70;99.90;;;;;;5073965;28;20039;-87
2022/03/20 09:15:30;;;;;;;19.83;13.35;;;13.40;99.90;;;;;;5071511;28;20025;-88
2022/03/20 09:20:42;;;;;;;19.85;12.63;;;11.70;99.90;;;;;;5078327;28;20039;-84
2022/03/20 09:23:09;;;;;;;24.23;14.15;;;12.60;99.90;;;;;;5078428;28;20017;-84
2022/03/20 09:25:35;;;;;;;18.25;11.80;;;12.80;99.90;;;;;;5061525;28;20035;-83
2022/03/20 09:28:03;;;;;;;20.83;14.13;;;13.90;99.90;;;;;;5078452;28;20020;-86
2022/03/20 09:30:30;;;;;;;22.02;15.23;;;14.80;99.90;;;;;;5077044;28;20049;-84
2022/03/20 09:32:56;;;;;;;26.58;14.98;;;13.70;99.90;;;;;;5077767;28;20035;-86
2022/03/20 09:35:21;;;;;;;24.27;13.88;;;13.40;99.90;;;;;;5077327;28;20017;-85
2022/03/20 09:37:47;;;;;;;25.13;14.40;;;13.50;99.90;;;;;;5074122;28;20045;-88
2022/03/20 09:40:13;;;;;;;18.27;11.85;;;14.00;99.90;;;;;;5070948;28;20029;-87
2022/03/20 09:42:41;;;;;;;24.80;14.65;;;13.50;99.90;;;;;;5068912;28;20052;-88
2022/03/20 09:45:11;;;;;;;25.50;14.50;;;13.30;99.90;;;;;;5071258;28;20112;-88
2022/03/20 09:47:41;;;;;;;;;;;13.90;99.90;;;;;;5076587;28;20017;-84
2022/03/20 09:50:08;;;;;;;24.38;15.60;;;13.20;99.90;;;;;;5076690;28;19970;-84
2022/03/20 09:52:35;;;;;;;23.58;15.20;;;13.50;99.90;;;;;;5076690;28;20044;-84
2022/03/20 09:55:01;;;;;;;23.38;14.63;;;14.90;99.90;;;;;;5076324;28;20012;-84
2022/03/20 09:57:30;;;;;;;16.30;11.15;;;14.80;99.90;;;;;;5070783;28;20051;-87
2022/03/20 09:59:57;;;;;;;27.42;15.38;;;13.90;99.90;;;;;;5073735;28;20071;-85
2022/03/20 10:02:27;;;;;;;23.58;14.40;;;13.60;99.90;;;;;;5076424;28;20017;-84
2022/03/20 10:04:59;;;;;;;24.50;15.02;;;14.80;99.90;;;;;;5076606;28;20088;-84
2022/03/20 10:07:28;;;;;;;23.73;16.52;;;13.00;99.90;;;;;;5077399;28;20071;-85
2022/03/20 10:10:22;;;;;;;21.20;12.85;;;13.60;99.90;;;;;;5069749;28;20057;-85
2022/03/20 10:12:56;;;;;;;22.05;14.50;;;15.30;99.90;;;;;;5072846;28;20019;-89
2022/03/20 10:15:34;;;;;;;24.98;14.88;;;15.50;99.90;;;;;;5069166;28;20053;-88
2022/03/20 10:18:19;;;;;;;24.58;15.63;;;13.90;99.90;;;;;;5065360;28;20119;-85
2022/03/20 10:20:47;;;;;;;24.70;16.05;;;14.00;99.90;;;;;;5070366;28;20036;-86
2022/03/20 10:23:36;;;;;;;25.05;16.85;;;12.90;99.90;;;;;;5056721;28;20025;-87
2022/03/20 10:26:14;;;;;;;21.63;15.75;;;13.90;99.90;;;;;;5060580;28;20024;-89
2022/03/20 10:28:42;;;;;;;24.85;14.32;;;14.20;99.90;;;;;;5059628;28;20029;-87
2022/03/20 10:31:18;;;;;;;27.08;15.90;;;13.90;99.90;;;;;;5070730;28;20043;-85
2022/03/20 10:33:58;;;;;;;21.20;13.20;;;13.80;99.90;;;;;;5073523;28;20033;-86
2022/03/20 10:36:28;;;;;;;27.55;16.80;;;13.10;99.90;;;;;;5072446;28;20029;-88
2022/03/20 10:38:55;;;;;;;23.25;15.88;;;13.00;99.90;;;;;;5068015;28;20029;-87
2022/03/20 10:41:34;;;;;;;23.88;16.00;;;12.90;99.90;;;;;;5069683;28;20037;-87
2022/03/20 10:44:10;;;;;;;27.10;15.25;;;13.20;99.90;;;;;;5070680;28;20037;-87
2022/03/20 10:46:37;;;;;;;21.98;13.05;;;13.10;99.90;;;;;;5066508;28;20056;-87
2022/03/20 10:49:05;;;;;;;20.42;12.73;;;11.80;99.90;;;;;;5070328;28;20059;-87
2022/03/20 10:51:42;;;;;;;21.23;13.27;;;11.40;99.90;;;;;;5048903;28;20034;-87
2022/03/20 10:54:25;;;;;;;25.23;15.60;;;11.00;99.90;;;;;;5071979;28;20021;-85
2022/03/20 10:57:00;;;;;;;25.08;16.33;;;10.90;99.90;;;;;;5067043;28;20021;-87
2022/03/20 10:59:30;;;;;;;25.90;17.85;;;11.20;99.90;;;;;;5061035;28;20037;-85
2022/03/20 11:01:58;;;;;;;25.65;17.05;;;10.60;99.90;;;;;;5063914;28;20044;-87
2022/03/20 11:04:28;;;;;;;25.52;14.90;;;10.20;99.90;;;;;;5065159;28;20048;-87
2022/03/20 11:06:54;;;;;;;31.00;15.55;;;10.80;99.90;;;;;;5051697;28;20116;-84
2022/03/20 11:09:24;;;;;;;25.50;16.45;;;10.60;99.90;;;;;;5067780;28;20059;-88
2022/03/20 11:11:53;;;;;;;20.08;12.98;;;10.70;99.90;;;;;;5061036;28;20064;-86
2022/03/20 11:14:21;;;;;;;25.38;15.90;;;10.50;99.90;;;;;;5053145;28;20080;-88
2022/03/20 11:17:13;;;;;;;28.10;15.65;;;11.00;99.90;;;;;;5071882;28;20032;-86
2022/03/20 11:19:46;;;;;;;26.08;16.73;;;10.80;99.90;;;;;;5068773;28;20029;-87
2022/03/20 11:22:15;;;;;;;25.67;17.98;;;10.80;99.90;;;;;;5063249;28;20029;-87
2022/03/20 11:24:42;;;;;;;29.00;15.50;;;10.50;99.90;;;;;;5078257;28;20127;-87
2022/03/20 11:27:11;;;;;;;26.35;14.32;;;10.90;99.90;;;;;;5050380;28;20041;-87
2022/03/20 11:29:51;;;;;;;26.35;14.98;;;10.50;99.90;;;;;;5062306;28;20083;-88
2022/03/20 11:32:18;;;;;;;28.10;17.75;;;10.60;99.90;;;;;;5066984;28;20304;-87
2022/03/20 11:34:46;;;;;;;26.27;16.92;;;11.00;99.90;;;;;;5064606;28;20052;-88
2022/03/20 11:37:15;;;;;;;25.65;17.17;;;10.80;99.90;;;;;;5063078;28;20041;-86
2022/03/20 11:40:17;;;;;;;28.37;18.83;;;10.90;99.90;;;;;;5053178;28;20040;-86
2022/03/20 11:42:43;;;;;;;26.67;16.17;;;11.10;99.90;;;;;;5067052;28;20029;-87
2022/03/20 11:45:13;;;;;;;24.10;15.43;;;11.40;99.90;;;;;;5061603;28;20021;-85
2022/03/20 11:47:40;;;;;;;25.85;16.17;;;11.30;99.90;;;;;;5059408;28;20028;-88
2022/03/20 11:50:16;;;;;;;28.33;18.25;;;11.50;99.90;;;;;;5060413;28;20028;-87
2022/03/20 11:53:03;;;;;;;26.02;15.73;;;11.40;99.90;;;;;;5061252;28;20487;-89
2022/03/20 11:55:35;;;;;;;26.10;15.65;;;11.50;99.90;;;;;;5062982;28;20033;-88
2022/03/20 11:58:24;;;;;;;29.00;18.90;;;11.50;99.90;;;;;;5061008;28;20021;-87
2022/03/20 12:01:06;;;;;;;24.20;16.13;;;11.40;99.90;;;;;;5057971;28;20037;-86
2022/03/20 12:03:56;;;;;;;25.45;16.88;;;11.60;99.90;;;;;;5060180;28;20021;-88
2022/03/20 12:06:43;;;;;;;28.83;17.45;;;11.50;99.90;;;;;;5059707;28;20045;-87
2022/03/20 12:09:30;;;;;;;26.80;15.05;;;11.20;99.90;;;;;;5059861;28;20029;-87
2022/03/20 12:12:34;;;;;;;31.58;19.00;;;11.40;99.90;;;;;;5061117;28;20078;-87
2022/03/20 12:15:10;;;;;;;28.95;17.90;;;11.40;99.90;;;;;;5054028;28;20402;-86
2022/03/20 12:17:57;;;;;;;26.27;16.92;;;11.30;99.90;;;;;;5059017;28;20036;-88
2022/03/20 12:20:48;;;;;;;29.83;18.55;;;10.80;99.90;;;;;;5059777;28;20112;-85
2022/03/20 12:23:29;;;;;;;29.00;17.55;;;11.00;99.90;;;;;;5058663;28;20479;-86
2022/03/20 12:25:56;;;;;;;29.10;17.80;;;11.70;99.90;;;;;;5057760;28;20024;-88
2022/03/20 12:28:28;;;;;;;25.65;16.48;;;11.40;99.90;;;;;;5058205;28;20033;-87
2022/03/20 12:30:54;;;;;;;30.55;19.52;;;11.00;99.90;;;;;;5066928;28;20110;-88
2022/03/20 12:33:27;;;;;;;29.73;18.90;;;11.40;99.90;;;;;;5058253;28;20029;-86
2022/03/20 12:35:54;;;;;;;29.65;18.75;;;11.40;99.90;;;;;;5049537;28;20109;-88
2022/03/20 12:38:37;;;;;;;32.90;19.88;;;11.50;99.90;;;;;;5057678;28;20484;-86
2022/03/20 12:41:14;;;;;;;27.75;17.98;;;11.30;99.90;;;;;;5067120;28;20039;-86
2022/03/20 12:43:42;;;;;;;33.28;20.73;;;11.30;99.90;;;;;;5058540;28;20054;-87
2022/03/20 12:46:09;;;;;;;32.33;18.17;;;11.30;99.90;;;;;;5058737;28;20051;-86
2022/03/20 12:48:35;;;;;;;32.35;19.42;;;12.00;99.90;;;;;;5057429;28;20025;-85
2022/03/20 12:51:11;;;;;;;28.33;18.52;;;11.60;99.90;;;;;;5056949;28;20373;-86
2022/03/20 12:53:43;;;;;;;29.50;18.98;;;11.30;99.90;;;;;;5057995;28;20033;-87
2022/03/20 12:58:40;;;;;;;28.08;18.05;;;11.80;99.90;;;;;;5059126;28;20040;-87
2022/03/20 13:01:08;;;;;;;28.92;19.55;;;12.20;99.90;;;;;;5053660;28;20025;-86
2022/03/20 13:03:34;;;;;;;32.13;17.90;;;12.00;99.90;;;;;;5053461;28;20333;-87
2022/03/20 13:06:03;;;;;;;31.40;20.52;;;12.70;99.90;;;;;;5056888;28;20594;-87
2022/03/20 13:08:35;;;;;;;30.25;20.05;;;12.10;99.90;;;;;;5056604;28;20033;-86
2022/03/20 13:11:48;;;;;;;31.23;19.10;;;12.10;99.90;;;;;;5054557;28;20090;-87
2022/03/20 13:13:52;;;;;;;30.75;19.17;;;11.50;99.90;;;;;;5055501;28;20077;-86
2022/03/20 13:16:17;;;;;;;30.35;19.63;;;11.40;99.90;;;;;;5054940;28;20070;-86
2022/03/20 13:18:45;;;;;;;33.40;22.15;;;11.60;99.90;;;;;;5055745;28;20029;-86
2022/03/20 13:21:12;;;;;;;32.28;20.27;;;11.30;99.90;;;;;;5055620;28;20408;-87
2022/03/20 13:23:43;;;;;;;32.30;20.98;;;11.80;99.90;;;;;;5055548;28;20029;-87